sensor_id;sensor_type;location;lat;lon;timestamp;temperature;humidity
26224;DHT22;14820;48.682;8.890;2023-01-29T01:34:21;-0.10;99.90
26224;DHT22;14820;48.682;8.890;2023-01-29T01:36:47;0.00;99.90
26224;DHT22;14820;48.682;8.890;2023-01-29T01:39:13;0.00;99.90
26224;DHT22;14820;48.682;8.890;2023-01-29T01:41:39;0.00;99.90
26224;DHT22;14820;48.682;8.890;2023-01-29T01:44:05;0.00;99.90
26224;DHT22;14820;48.682;8.890;2023-01-29T01:46:34;0.00;99.90
26224;DHT22;14820;48.682;8.890;2023-01-29T01:49:10;0.00;99.90
26224;DHT22;14820;48.682;8.890;2023-01-29T01:51:47;0.00;99.90
26224;DHT22;14820;48.682;8.890;2023-01-29T01:54:24;0.00;99.90
26224;DHT22;14820;48.682;8.890;2023-01-29T01:56:55;0.00;99.90
26224;DHT22;14820;48.682;8.890;2023-01-29T01:59:31;-0.10;99.90
26224;DHT22;14820;48.682;8.890;2023-01-29T02:01:57;-0.10;99.90
26224;DHT22;14820;48.682;8.890;2023-01-29T02:04:24;-0.10;99.90
26224;DHT22;14820;48.682;8.890;2023-01-29T02:07:11;-0.10;99.90
26224;DHT22;14820;48.682;8.890;2023-01-29T02:12:25;-0.10;99.90
26224;DHT22;14820;48.682;8.890;2023-01-29T02:14:56;0.00;99.90
26224;DHT22;14820;48.682;8.890;2023-01-29T02:17:21;0.00;99.90
26224;DHT22;14820;48.682;8.890;2023-01-29T02:28:20;-0.10;99.90
26224;DHT22;14820;48.682;8.890;2023-01-29T02:33:52;-0.10;99.90
26224;DHT22;14820;48.682;8.890;2023-01-29T02:41:51;-0.20;99.90
26224;DHT22;14820;48.682;8.890;2023-01-29T02:47:00;-0.10;99.90
26224;DHT22;14820;48.682;8.890;2023-01-29T02:49:35;-0.20;99.90
26224;DHT22;14820;48.682;8.890;2023-01-29T02:52:20;-0.20;99.90
26224;DHT22;14820;48.682;8.890;2023-01-29T02:54:58;-0.20;99.90
26224;DHT22;14820;48.682;8.890;2023-01-29T02:57:31;-0.20;99.90
26224;DHT22;14820;48.682;8.890;2023-01-29T03:00:11;-0.10;99.90
26224;DHT22;14820;48.682;8.890;2023-01-29T03:03:00;-0.10;99.90
26224;DHT22;14820;48.682;8.890;2023-01-29T03:05:39;-0.10;99.90
26224;DHT22;14820;48.682;8.890;2023-01-29T03:08:11;-0.20;99.90
26224;DHT22;14820;48.682;8.890;2023-01-29T03:10:51;-0.10;99.90
26224;DHT22;14820;48.682;8.890;2023-01-29T03:13:41;0.00;99.90
26224;DHT22;14820;48.682;8.890;2023-01-29T03:16:19;-0.10;99.90
26224;DHT22;14820;48.682;8.890;2023-01-29T03:18:53;-0.10;99.90
26224;DHT22;14820;48.682;8.890;2023-01-29T03:21:42;-0.10;99.90
26224;DHT22;14820;48.682;8.890;2023-01-29T03:24:20;-0.10;99.90
26224;DHT22;14820;48.682;8.890;2023-01-29T03:27:09;-0.10;99.90
26224;DHT22;14820;48.682;8.890;2023-01-29T03:29:55;-0.20;99.90
26224;DHT22;14820;48.682;8.890;2023-01-29T03:32:41;-0.20;99.90
26224;DHT22;14820;48.682;8.890;2023-01-29T03:35:09;-0.20;99.90
26224;DHT22;14820;48.682;8.890;2023-01-29T03:37:42;-0.20;99.90
26224;DHT22;14820;48.682;8.890;2023-01-29T03:40:11;-0.10;99.90
26224;DHT22;14820;48.682;8.890;2023-01-29T13:54:23;1.50;99.90
26224;DHT22;14820;48.682;8.890;2023-01-29T13:59:47;1.70;99.90
26224;DHT22;14820;48.682;8.890;2023-01-29T14:02:27;1.90;99.90
26224;DHT22;14820;48.682;8.890;2023-01-29T14:08:02;2.00;99.90
26224;DHT22;14820;48.682;8.890;2023-01-29T14:10:32;2.00;99.90
26224;DHT22;14820;48.682;8.890;2023-01-29T14:15:37;1.90;99.90
26224;DHT22;14820;48.682;8.890;2023-01-29T14:18:15;1.80;99.90
26224;DHT22;14820;48.682;8.890;2023-01-29T14:21:06;1.90;99.90
26224;DHT22;14820;48.682;8.890;2023-01-29T14:29:03;1.90;99.90
26224;DHT22;14820;48.682;8.890;2023-01-29T14:34:01;2.10;99.90
26224;DHT22;14820;48.682;8.890;2023-01-29T14:36:28;2.10;99.90
26224;DHT22;14820;48.682;8.890;2023-01-29T14:39:02;2.00;99.90
26224;DHT22;14820;48.682;8.890;2023-01-29T14:41:30;1.90;99.90
26224;DHT22;14820;48.682;8.890;2023-01-29T14:47:00;1.80;99.90
26224;DHT22;14820;48.682;8.890;2023-01-29T14:49:48;1.70;99.90
26224;DHT22;14820;48.682;8.890;2023-01-29T14:52:14;1.70;99.90
26224;DHT22;14820;48.682;8.890;2023-01-29T14:54:41;1.70;99.90
26224;DHT22;14820;48.682;8.890;2023-01-29T14:57:10;1.70;99.90
26224;DHT22;14820;48.682;8.890;2023-01-29T15:00:00;1.70;99.90
26224;DHT22;14820;48.682;8.890;2023-01-29T15:02:42;1.70;99.90
26224;DHT22;14820;48.682;8.890;2023-01-29T15:05:16;1.70;99.90
26224;DHT22;14820;48.682;8.890;2023-01-29T15:07:52;1.80;99.90
26224;DHT22;14820;48.682;8.890;2023-01-29T15:15:43;2.30;99.90
26224;DHT22;14820;48.682;8.890;2023-01-29T15:18:32;2.50;99.90
26224;DHT22;14820;48.682;8.890;2023-01-29T15:21:04;2.40;99.90
26224;DHT22;14820;48.682;8.890;2023-01-29T15:23:36;2.30;99.90
26224;DHT22;14820;48.682;8.890;2023-01-29T15:26:10;2.20;99.90
26224;DHT22;14820;48.682;8.890;2023-01-29T15:28:37;2.30;99.90
26224;DHT22;14820;48.682;8.890;2023-01-29T15:31:11;2.30;99.90
26224;DHT22;14820;48.682;8.890;2023-01-29T15:33:41;2.40;99.90
26224;DHT22;14820;48.682;8.890;2023-01-29T15:36:17;2.30;99.90
26224;DHT22;14820;48.682;8.890;2023-01-29T15:38:44;2.30;99.90
26224;DHT22;14820;48.682;8.890;2023-01-29T15:41:18;2.20;99.90
26224;DHT22;14820;48.682;8.890;2023-01-29T15:43:56;2.10;99.90
26224;DHT22;14820;48.682;8.890;2023-01-29T15:46:37;2.00;99.90
26224;DHT22;14820;48.682;8.890;2023-01-29T15:49:10;1.90;99.90
26224;DHT22;14820;48.682;8.890;2023-01-29T15:51:39;1.80;99.90
26224;DHT22;14820;48.682;8.890;2023-01-29T15:54:09;1.80;99.90
26224;DHT22;14820;48.682;8.890;2023-01-29T15:56:42;1.70;99.90
26224;DHT22;14820;48.682;8.890;2023-01-29T15:59:26;1.60;99.90
26224;DHT22;14820;48.682;8.890;2023-01-29T16:01:55;1.60;99.90
26224;DHT22;14820;48.682;8.890;2023-01-29T16:04:26;1.60;99.90
26224;DHT22;14820;48.682;8.890;2023-01-29T16:06:55;1.50;99.90
26224;DHT22;14820;48.682;8.890;2023-01-29T16:09:24;1.50;99.90
26224;DHT22;14820;48.682;8.890;2023-01-29T16:11:50;1.40;99.90
26224;DHT22;14820;48.682;8.890;2023-01-29T16:14:20;1.40;99.90
26224;DHT22;14820;48.682;8.890;2023-01-29T16:16:47;1.30;99.90
26224;DHT22;14820;48.682;8.890;2023-01-29T16:19:23;1.30;99.90
26224;DHT22;14820;48.682;8.890;2023-01-29T16:21:58;1.20;99.90
26224;DHT22;14820;48.682;8.890;2023-01-29T16:24:25;1.20;99.90
26224;DHT22;14820;48.682;8.890;2023-01-29T16:26:59;1.20;99.90
26224;DHT22;14820;48.682;8.890;2023-01-29T16:29:32;1.10;99.90
26224;DHT22;14820;48.682;8.890;2023-01-29T16:31:59;1.10;99.90
26224;DHT22;14820;48.682;8.890;2023-01-29T16:34:36;1.10;99.90
26224;DHT22;14820;48.682;8.890;2023-01-29T16:37:05;0.90;99.90
26224;DHT22;14820;48.682;8.890;2023-01-29T16:39:35;0.90;99.90
26224;DHT22;14820;48.682;8.890;2023-01-29T16:44:34;0.80;99.90
26224;DHT22;14820;48.682;8.890;2023-01-29T18:19:12;-0.80;99.90
26224;DHT22;14820;48.682;8.890;2023-01-29T18:21:38;-0.80;99.90
26224;DHT22;14820;48.682;8.890;2023-01-29T18:24:04;-0.80;99.90
26224;DHT22;14820;48.682;8.890;2023-01-29T18:26:30;-0.80;99.90
26224;DHT22;14820;48.682;8.890;2023-01-29T18:28:55;-0.80;99.90
26224;DHT22;14820;48.682;8.890;2023-01-29T18:31:21;-0.80;99.90
26224;DHT22;14820;48.682;8.890;2023-01-29T18:33:46;-0.80;99.90
26224;DHT22;14820;48.682;8.890;2023-01-29T18:36:12;-0.70;99.90
26224;DHT22;14820;48.682;8.890;2023-01-29T18:38:38;-0.80;99.90
26224;DHT22;14820;48.682;8.890;2023-01-29T18:41:08;-0.90;99.90
26224;DHT22;14820;48.682;8.890;2023-01-29T18:43:39;-0.90;99.90
26224;DHT22;14820;48.682;8.890;2023-01-29T18:46:06;-0.90;99.90
26224;DHT22;14820;48.682;8.890;2023-01-29T18:48:32;-0.90;99.90
26224;DHT22;14820;48.682;8.890;2023-01-29T18:50:58;-0.90;99.90
26224;DHT22;14820;48.682;8.890;2023-01-29T18:53:24;-1.00;99.90
26224;DHT22;14820;48.682;8.890;2023-01-29T18:56:08;-1.00;99.90
26224;DHT22;14820;48.682;8.890;2023-01-29T18:58:35;-1.20;99.90
26224;DHT22;14820;48.682;8.890;2023-01-29T19:01:05;-1.20;99.90
26224;DHT22;14820;48.682;8.890;2023-01-29T19:03:34;-1.30;99.90
26224;DHT22;14820;48.682;8.890;2023-01-29T19:06:01;-1.30;99.90
26224;DHT22;14820;48.682;8.890;2023-01-29T19:08:28;-1.30;99.90
26224;DHT22;14820;48.682;8.890;2023-01-29T19:10:53;-1.30;99.90
26224;DHT22;14820;48.682;8.890;2023-01-29T19:13:19;-1.30;99.90
26224;DHT22;14820;48.682;8.890;2023-01-29T19:15:45;-1.30;99.90
26224;DHT22;14820;48.682;8.890;2023-01-29T19:18:12;-1.30;99.90
26224;DHT22;14820;48.682;8.890;2023-01-29T19:20:42;-1.30;99.90
26224;DHT22;14820;48.682;8.890;2023-01-29T19:23:08;-1.40;99.90
26224;DHT22;14820;48.682;8.890;2023-01-29T19:25:38;-1.50;99.90
26224;DHT22;14820;48.682;8.890;2023-01-29T19:28:05;-1.60;99.90
26224;DHT22;14820;48.682;8.890;2023-01-29T19:30:32;-1.50;99.90
26224;DHT22;14820;48.682;8.890;2023-01-29T19:32:58;-1.60;99.90
26224;DHT22;14820;48.682;8.890;2023-01-29T19:35:23;-1.60;99.90
26224;DHT22;14820;48.682;8.890;2023-01-29T19:37:49;-1.70;99.90
26224;DHT22;14820;48.682;8.890;2023-01-29T19:40:15;-1.70;99.90
26224;DHT22;14820;48.682;8.890;2023-01-29T19:42:41;-1.80;99.90
26224;DHT22;14820;48.682;8.890;2023-01-29T19:45:07;-1.80;99.90
26224;DHT22;14820;48.682;8.890;2023-01-29T19:47:41;-1.80;99.90
26224;DHT22;14820;48.682;8.890;2023-01-29T19:50:08;-1.80;99.90
26224;DHT22;14820;48.682;8.890;2023-01-29T19:52:34;-1.90;99.90
26224;DHT22;14820;48.682;8.890;2023-01-29T19:55:02;-2.00;99.90
26224;DHT22;14820;48.682;8.890;2023-01-29T19:57:28;-1.90;99.90
26224;DHT22;14820;48.682;8.890;2023-01-29T20:02:24;-1.90;99.90
26224;DHT22;14820;48.682;8.890;2023-01-29T20:04:51;-2.00;99.90
26224;DHT22;14820;48.682;8.890;2023-01-29T20:07:17;-2.10;99.90
26224;DHT22;14820;48.682;8.890;2023-01-29T20:09:47;-2.20;99.90
26224;DHT22;14820;48.682;8.890;2023-01-29T20:12:13;-2.20;99.90
26224;DHT22;14820;48.682;8.890;2023-01-29T20:14:39;-2.20;99.90
26224;DHT22;14820;48.682;8.890;2023-01-29T20:17:10;-2.20;99.90
26224;DHT22;14820;48.682;8.890;2023-01-29T20:19:36;-2.20;99.90
26224;DHT22;14820;48.682;8.890;2023-01-29T20:22:02;-2.20;99.90
26224;DHT22;14820;48.682;8.890;2023-01-29T20:24:28;-2.30;99.90
26224;DHT22;14820;48.682;8.890;2023-01-29T20:26:56;-2.20;99.90
26224;DHT22;14820;48.682;8.890;2023-01-29T20:29:22;-2.30;99.90
26224;DHT22;14820;48.682;8.890;2023-01-29T20:31:48;-2.30;99.90
26224;DHT22;14820;48.682;8.890;2023-01-29T20:34:13;-2.40;99.90
26224;DHT22;14820;48.682;8.890;2023-01-29T20:36:39;-2.40;99.90
26224;DHT22;14820;48.682;8.890;2023-01-29T20:39:05;-2.30;99.90
26224;DHT22;14820;48.682;8.890;2023-01-29T20:41:30;-2.40;99.90
26224;DHT22;14820;48.682;8.890;2023-01-29T20:43:56;-2.50;99.90
26224;DHT22;14820;48.682;8.890;2023-01-29T20:46:22;-2.50;99.90
26224;DHT22;14820;48.682;8.890;2023-01-29T20:48:47;-2.50;99.90
26224;DHT22;14820;48.682;8.890;2023-01-29T20:51:17;-2.50;99.90
26224;DHT22;14820;48.682;8.890;2023-01-29T20:53:44;-2.50;99.90
26224;DHT22;14820;48.682;8.890;2023-01-29T20:56:11;-2.50;99.90
26224;DHT22;14820;48.682;8.890;2023-01-29T20:58:37;-2.50;99.90
26224;DHT22;14820;48.682;8.890;2023-01-29T21:01:08;-2.40;99.90
26224;DHT22;14820;48.682;8.890;2023-01-29T21:03:34;-2.40;99.90
26224;DHT22;14820;48.682;8.890;2023-01-29T21:05:59;-2.30;99.90
26224;DHT22;14820;48.682;8.890;2023-01-29T21:08:25;-2.20;99.90
26224;DHT22;14820;48.682;8.890;2023-01-29T21:10:51;-2.30;99.90
26224;DHT22;14820;48.682;8.890;2023-01-29T21:13:17;-2.30;99.90
26224;DHT22;14820;48.682;8.890;2023-01-29T21:15:43;-2.40;99.90
26224;DHT22;14820;48.682;8.890;2023-01-29T21:18:09;-2.50;99.90
26224;DHT22;14820;48.682;8.890;2023-01-29T21:20:35;-2.40;99.90
26224;DHT22;14820;48.682;8.890;2023-01-29T21:23:02;-2.40;99.90
26224;DHT22;14820;48.682;8.890;2023-01-29T21:25:28;-2.30;99.90
26224;DHT22;14820;48.682;8.890;2023-01-29T21:27:54;-2.30;99.90
26224;DHT22;14820;48.682;8.890;2023-01-29T21:30:20;-2.30;99.90
26224;DHT22;14820;48.682;8.890;2023-01-29T21:32:46;-2.20;99.90
26224;DHT22;14820;48.682;8.890;2023-01-29T21:35:11;-2.20;99.90
26224;DHT22;14820;48.682;8.890;2023-01-29T21:37:37;-2.20;99.90
26224;DHT22;14820;48.682;8.890;2023-01-29T21:40:04;-2.30;99.90
26224;DHT22;14820;48.682;8.890;2023-01-29T21:42:30;-2.30;99.90
26224;DHT22;14820;48.682;8.890;2023-01-29T21:45:15;-2.40;99.90
26224;DHT22;14820;48.682;8.890;2023-01-29T21:47:41;-2.40;99.90
26224;DHT22;14820;48.682;8.890;2023-01-29T21:50:07;-2.40;99.90
26224;DHT22;14820;48.682;8.890;2023-01-29T21:52:33;-2.40;99.90
26224;DHT22;14820;48.682;8.890;2023-01-29T21:54:58;-2.40;99.90
26224;DHT22;14820;48.682;8.890;2023-01-29T21:57:24;-2.40;99.90
26224;DHT22;14820;48.682;8.890;2023-01-29T21:59:54;-2.50;99.90
26224;DHT22;14820;48.682;8.890;2023-01-29T22:02:21;-2.50;99.90
26224;DHT22;14820;48.682;8.890;2023-01-29T22:04:47;-2.80;99.90
26224;DHT22;14820;48.682;8.890;2023-01-29T22:07:13;-2.90;99.90
26224;DHT22;14820;48.682;8.890;2023-01-29T22:09:39;-2.90;99.90
26224;DHT22;14820;48.682;8.890;2023-01-29T22:12:06;-2.90;99.90
26224;DHT22;14820;48.682;8.890;2023-01-29T22:14:32;-2.80;99.90
26224;DHT22;14820;48.682;8.890;2023-01-29T22:16:58;-2.80;99.90
26224;DHT22;14820;48.682;8.890;2023-01-29T22:19:23;-2.80;99.90
26224;DHT22;14820;48.682;8.890;2023-01-29T22:21:53;-2.70;99.90
26224;DHT22;14820;48.682;8.890;2023-01-29T22:24:20;-2.70;99.90
26224;DHT22;14820;48.682;8.890;2023-01-29T22:26:46;-2.70;99.90
26224;DHT22;14820;48.682;8.890;2023-01-29T22:29:12;-2.80;99.90
26224;DHT22;14820;48.682;8.890;2023-01-29T22:31:39;-2.80;99.90
26224;DHT22;14820;48.682;8.890;2023-01-29T22:34:09;-2.90;99.90
26224;DHT22;14820;48.682;8.890;2023-01-29T22:36:35;-2.90;99.90
26224;DHT22;14820;48.682;8.890;2023-01-29T22:39:00;-2.90;99.90
26224;DHT22;14820;48.682;8.890;2023-01-29T22:41:26;-2.90;99.90
26224;DHT22;14820;48.682;8.890;2023-01-29T22:43:52;-3.00;99.90
26224;DHT22;14820;48.682;8.890;2023-01-29T22:46:18;-3.00;99.90
26224;DHT22;14820;48.682;8.890;2023-01-29T22:48:43;-3.00;99.90
26224;DHT22;14820;48.682;8.890;2023-01-29T22:51:10;-3.00;99.90
26224;DHT22;14820;48.682;8.890;2023-01-29T22:53:51;-3.00;99.90
26224;DHT22;14820;48.682;8.890;2023-01-29T22:56:18;-3.10;99.90
26224;DHT22;14820;48.682;8.890;2023-01-29T22:58:49;-3.10;99.90
26224;DHT22;14820;48.682;8.890;2023-01-29T23:01:17;-3.10;99.90
26224;DHT22;14820;48.682;8.890;2023-01-29T23:03:43;-3.10;99.90
26224;DHT22;14820;48.682;8.890;2023-01-29T23:06:09;-3.00;99.90
26224;DHT22;14820;48.682;8.890;2023-01-29T23:08:36;-3.00;99.90
26224;DHT22;14820;48.682;8.890;2023-01-29T23:11:03;-3.00;99.90
26224;DHT22;14820;48.682;8.890;2023-01-29T23:16:08;-3.10;99.90
26224;DHT22;14820;48.682;8.890;2023-01-29T23:18:34;-3.00;99.90
26224;DHT22;14820;48.682;8.890;2023-01-29T23:21:00;-2.90;99.90
26224;DHT22;14820;48.682;8.890;2023-01-29T23:23:31;-2.80;99.90
26224;DHT22;14820;48.682;8.890;2023-01-29T23:26:01;-2.80;99.90
26224;DHT22;14820;48.682;8.890;2023-01-29T23:28:46;-2.70;99.90
26224;DHT22;14820;48.682;8.890;2023-01-29T23:31:13;-2.60;99.90
26224;DHT22;14820;48.682;8.890;2023-01-29T23:33:39;-2.60;99.90
26224;DHT22;14820;48.682;8.890;2023-01-29T23:36:05;-2.60;99.90
26224;DHT22;14820;48.682;8.890;2023-01-29T23:38:31;-2.50;99.90
26224;DHT22;14820;48.682;8.890;2023-01-29T23:40:58;-2.50;99.90
26224;DHT22;14820;48.682;8.890;2023-01-29T23:43:25;-2.50;99.90
26224;DHT22;14820;48.682;8.890;2023-01-29T23:45:51;-2.40;99.90
26224;DHT22;14820;48.682;8.890;2023-01-29T23:48:16;-2.40;99.90
26224;DHT22;14820;48.682;8.890;2023-01-29T23:50:42;-2.30;99.90
26224;DHT22;14820;48.682;8.890;2023-01-29T23:53:08;-2.30;99.90
26224;DHT22;14820;48.682;8.890;2023-01-29T23:55:34;-2.20;99.90
26224;DHT22;14820;48.682;8.890;2023-01-29T23:57:59;-2.30;99.90
